Time;durP1;ratioP1;P1;durP2;ratioP2;P2;SDS_P1;SDS_P2;PMS_P1;PMS_P2;Temp;Humidity;BMP_temperature;BMP_pressure;BME280_temperature;BME280_humidity;BME280_pressure;Samples;Min_cycle;Max_cycle;Signal;HPM_P1;HPM_P2
2022/06/15 00:00:48;;;;;;;0.25;0.25;;;;;;;;;;5077471;28;20062;-87
2022/06/15 00:03:18;;;;;;;0.03;0.03;;;;;;;;;;5068023;28;22068;-86
2022/06/15 00:05:47;;;;;;;0.47;0.40;;;;;;;;;;5084931;28;20024;-83
2022/06/15 00:08:15;;;;;;;1.20;0.60;;;;;;;;;;5067840;28;20028;-88
2022/06/15 00:10:43;;;;;;;0.80;0.30;;;;;;;;;;5050502;28;20025;-85
2022/06/15 00:13:11;;;;;;;0.10;0.10;;;;;;;;;;5084017;28;20062;-84
2022/06/15 00:15:36;;;;;;;0.30;0.30;;;;;;;;;;5086824;28;20033;-88
2022/06/15 00:18:02;;;;;;;0.20;0.20;;;;;;;;;;5073167;28;20041;-88
2022/06/15 00:20:30;;;;;;;0.05;0.05;;;;;;;;;;5071906;28;20025;-86
2022/06/15 00:22:58;;;;;;;0.55;0.50;;;;;;;;;;5092173;28;20376;-87
2022/06/15 00:25:23;;;;;;;2.03;0.68;;;;;;;;;;5081869;28;20060;-85
2022/06/15 00:27:53;;;;;;;0.32;0.32;;;;;;;;;;5086822;28;20052;-88
2022/06/15 00:30:21;;;;;;;0.50;0.35;;;;;;;;;;5077020;28;20027;-87
2022/06/15 00:32:46;;;;;;;1.65;1.35;;;;;;;;;;5069029;28;20029;-87
2022/06/15 00:35:12;;;;;;;2.08;0.43;;;;;;;;;;5090331;28;20046;-88
2022/06/15 00:37:37;;;;;;;0.65;0.63;;;;;;;;;;5075337;28;20035;-86
2022/06/15 00:40:06;;;;;;;2.00;0.30;;;;;;;;;;5095576;28;20039;-87
2022/06/15 00:42:32;;;;;;;12.75;1.33;;;;;;;;;;5057231;28;20021;-87
2022/06/15 00:45:00;;;;;;;0.65;0.20;;;;;;;;;;5089607;28;20035;-87
2022/06/15 00:47:31;;;;;;;0.50;0.32;;;;;;;;;;5072374;28;20166;-87
2022/06/15 00:50:12;;;;;;;0.10;0.10;;;;;;;;;;5069798;28;20036;-87
2022/06/15 00:52:44;;;;;;;0.15;0.13;;;;;;;;;;5078823;28;20029;-87
2022/06/15 00:55:17;;;;;;;0.52;0.50;;;;;;;;;;5080599;28;20024;-86
2022/06/15 00:57:42;;;;;;;1.25;1.15;;;;;;;;;;5034542;28;20534;-88
2022/06/15 01:00:13;;;;;;;0.20;0.20;;;;;;;;;;5065825;28;20114;-75
2022/06/15 01:02:42;;;;;;;0.55;0.45;;;;;;;;;;5058401;28;20033;-75
2022/06/15 01:05:22;;;;;;;0.17;0.17;;;;;;;;;;5093758;28;20020;-75
2022/06/15 01:08:32;;;;;;;1.75;1.30;;;;;;;;;;5072462;28;20032;-75
2022/06/15 01:11:22;;;;;;;1.33;0.63;;;;;;;;;;5039609;28;20055;-75
2022/06/15 01:13:54;;;;;;;0.30;0.30;;;;;;;;;;5068807;28;20056;-74
2022/06/15 01:16:28;;;;;;;1.30;0.50;;;;;;;;;;5082182;28;20028;-74
2022/06/15 01:19:20;;;;;;;1.90;0.85;;;;;;;;;;5093402;28;20031;-75
2022/06/15 01:21:48;;;;;;;0.32;0.32;;;;;;;;;;5076310;28;20036;-75
2022/06/15 01:24:28;;;;;;;3.28;0.43;;;;;;;;;;5075308;28;20457;-75
2022/06/15 01:27:48;;;;;;;0.40;0.40;;;;;;;;;;5083303;28;20536;-74
2022/06/15 01:30:18;;;;;;;0.40;0.38;;;;;;;;;;5012091;28;20030;-74
2022/06/15 01:32:46;;;;;;;0.10;0.10;;;;;;;;;;5059078;28;20450;-75
2022/06/15 01:35:18;;;;;;;0.85;0.50;;;;;;;;;;5085503;28;20028;-75
2022/06/15 01:37:54;;;;;;;0.25;0.25;;;;;;;;;;5069749;28;20033;-74
2022/06/15 01:41:05;;;;;;;0.63;0.30;;;;;;;;;;5072207;28;20028;-75
2022/06/15 01:43:33;;;;;;;0.60;0.60;;;;;;;;;;5083678;28;20048;-75
2022/06/15 01:45:59;;;;;;;0.05;0.05;;;;;;;;;;5065158;28;20067;-74
2022/06/15 01:48:26;;;;;;;0.50;0.30;;;;;;;;;;5069326;28;20052;-75
2022/06/15 01:50:55;;;;;;;0.22;0.22;;;;;;;;;;5071340;28;20027;-75
2022/06/15 01:53:26;;;;;;;0.30;0.30;;;;;;;;;;5065254;28;20059;-75
2022/06/15 01:56:09;;;;;;;0.30;0.30;;;;;;;;;;5069006;28;20027;-75
2022/06/15 01:58:39;;;;;;;0.75;0.52;;;;;;;;;;5084216;28;20326;-75
2022/06/15 02:01:21;;;;;;;0.57;0.50;;;;;;;;;;5074566;28;20020;-74
2022/06/15 02:04:15;;;;;;;0.50;0.40;;;;;;;;;;5066771;28;20021;-74
2022/06/15 02:06:53;;;;;;;0.15;0.15;;;;;;;;;;5074722;28;20043;-75
2022/06/15 02:09:37;;;;;;;1.38;1.27;;;;;;;;;;5092128;28;20058;-75
2022/06/15 02:12:05;;;;;;;0.20;0.20;;;;;;;;;;5043246;28;20037;-75
2022/06/15 02:14:35;;;;;;;0.32;0.32;;;;;;;;;;5079960;28;20446;-75
2022/06/15 02:17:05;;;;;;;0.75;0.75;;;;;;;;;;5054227;28;20031;-75
2022/06/15 02:19:45;;;;;;;0.55;0.20;;;;;;;;;;5063541;28;20165;-75
2022/06/15 02:22:13;;;;;;;0.08;0.08;;;;;;;;;;5068571;28;20021;-74
2022/06/15 02:24:40;;;;;;;0.20;0.20;;;;;;;;;;5072941;28;20024;-76
2022/06/15 02:27:07;;;;;;;0.20;0.20;;;;;;;;;;5059776;28;20361;-76
2022/06/15 02:29:35;;;;;;;1.10;0.73;;;;;;;;;;5079231;28;20068;-75
2022/06/15 02:32:00;;;;;;;0.28;0.28;;;;;;;;;;5068786;28;20089;-75
2022/06/15 02:34:26;;;;;;;1.52;1.27;;;;;;;;;;5077505;28;20028;-76
2022/06/15 02:36:52;;;;;;;0.82;0.38;;;;;;;;;;5090885;28;20036;-76
2022/06/15 02:39:18;;;;;;;0.65;0.57;;;;;;;;;;5091971;28;20599;-75
2022/06/15 02:41:43;;;;;;;0.13;0.10;;;;;;;;;;5076112;28;20116;-74
2022/06/15 02:44:12;;;;;;;0.52;0.52;;;;;;;;;;5090721;28;20034;-76
2022/06/15 02:46:43;;;;;;;2.28;0.70;;;;;;;;;;5070952;28;20021;-75
2022/06/15 02:49:08;;;;;;;0.65;0.65;;;;;;;;;;5050766;28;20024;-75
2022/06/15 02:51:39;;;;;;;0.38;0.32;;;;;;;;;;5042050;28;20036;-76
2022/06/15 02:54:08;;;;;;;1.67;1.10;;;;;;;;;;5087524;28;20079;-76
2022/06/15 02:56:37;;;;;;;0.13;0.13;;;;;;;;;;5082406;28;20036;-76
2022/06/15 02:59:06;;;;;;;1.23;0.40;;;;;;;;;;5092500;28;20391;-76
2022/06/15 03:01:31;;;;;;;0.47;0.47;;;;;;;;;;5071793;28;20031;-76
2022/06/15 03:03:57;;;;;;;0.10;0.10;;;;;;;;;;5064555;28;20020;-75
2022/06/15 03:06:27;;;;;;;0.10;0.10;;;;;;;;;;5080418;28;20035;-74
2022/06/15 03:08:58;;;;;;;1.05;0.63;;;;;;;;;;5091004;28;20028;-75
2022/06/15 03:11:26;;;;;;;1.13;0.70;;;;;;;;;;5074866;28;20089;-76
2022/06/15 03:13:54;;;;;;;0.38;0.38;;;;;;;;;;5084367;28;20028;-76
2022/06/15 03:16:20;;;;;;;0.30;0.30;;;;;;;;;;5085333;28;20137;-75
2022/06/15 03:18:46;;;;;;;1.10;0.60;;;;;;;;;;5075087;28;20102;-75
2022/06/15 03:21:12;;;;;;;0.50;0.35;;;;;;;;;;5084578;28;20532;-75
2022/06/15 03:23:40;;;;;;;0.68;0.50;;;;;;;;;;5076644;28;20024;-75
2022/06/15 03:26:06;;;;;;;0.35;0.30;;;;;;;;;;5074705;28;20098;-75
2022/06/15 03:28:34;;;;;;;0.50;0.50;;;;;;;;;;5071022;28;20458;-75
2022/06/15 03:30:59;;;;;;;1.30;0.75;;;;;;;;;;5092492;28;20422;-76
2022/06/15 03:33:24;;;;;;;0.80;0.40;;;;;;;;;;5089554;28;20036;-76
2022/06/15 03:35:50;;;;;;;0.57;0.47;;;;;;;;;;5082865;28;20039;-76
2022/06/15 03:38:17;;;;;;;0.55;0.50;;;;;;;;;;5091856;28;20023;-76
2022/06/15 03:40:46;;;;;;;0.30;0.30;;;;;;;;;;5092984;28;20107;-76
2022/06/15 03:43:11;;;;;;;2.13;1.13;;;;;;;;;;5067549;28;20024;-76
2022/06/15 03:45:37;;;;;;;0.60;0.60;;;;;;;;;;5078916;28;20113;-76
2022/06/15 03:48:03;;;;;;;1.17;1.00;;;;;;;;;;5068858;28;20063;-76
2022/06/15 03:50:31;;;;;;;0.57;0.32;;;;;;;;;;5077739;28;20397;-75
2022/06/15 03:52:57;;;;;;;1.52;0.65;;;;;;;;;;5094940;28;20035;-76
2022/06/15 03:55:23;;;;;;;0.20;0.20;;;;;;;;;;5071342;28;20024;-75
2022/06/15 03:57:50;;;;;;;0.70;0.45;;;;;;;;;;5087637;28;20052;-77
2022/06/15 04:00:20;;;;;;;0.70;0.60;;;;;;;;;;5064952;28;20043;-75
2022/06/15 04:02:45;;;;;;;0.85;0.30;;;;;;;;;;5053118;28;20043;-76
2022/06/15 04:05:30;;;;;;;0.60;0.60;;;;;;;;;;5084660;28;20024;-77
2022/06/15 04:10:39;;;;;;;0.85;0.68;;;;;;;;;;5086644;28;20043;-77
2022/06/15 04:13:04;;;;;;;1.48;1.35;;;;;;;;;;5095950;28;20027;-75
2022/06/15 04:15:30;;;;;;;0.13;0.13;;;;;;;;;;5082002;28;20091;-74
2022/06/15 04:17:56;;;;;;;1.50;1.13;;;;;;;;;;5061877;28;20368;-76
2022/06/15 04:20:32;;;;;;;0.85;0.77;;;;;;;;;;5075031;28;20024;-76
2022/06/15 04:23:52;;;;;;;0.30;0.30;;;;;;;;;;5091823;28;20052;-76
2022/06/15 04:26:17;;;;;;;0.57;0.40;;;;;;;;;;5057156;28;20035;-76
2022/06/15 04:28:45;;;;;;;0.63;0.47;;;;;;;;;;5079269;28;20147;-76
2022/06/15 04:31:10;;;;;;;1.33;0.63;;;;;;;;;;5073754;28;20467;-76
2022/06/15 04:33:38;;;;;;;0.47;0.43;;;;;;;;;;5085424;28;20036;-76
2022/06/15 04:36:06;;;;;;;1.13;0.68;;;;;;;;;;5094214;28;20032;-76
2022/06/15 04:38:36;;;;;;;3.10;0.73;;;;;;;;;;5092323;28;20032;-76
2022/06/15 04:41:04;;;;;;;0.95;0.55;;;;;;;;;;5093478;28;20055;-76
2022/06/15 04:43:30;;;;;;;1.63;0.93;;;;;;;;;;5089808;28;20357;-76
2022/06/15 04:45:57;;;;;;;2.53;1.83;;;;;;;;;;5070734;28;20030;-76
2022/06/15 04:48:23;;;;;;;0.80;0.20;;;;;;;;;;5090135;28;20361;-75
2022/06/15 04:50:48;;;;;;;0.80;0.60;;;;;;;;;;5088842;28;20028;-76
2022/06/15 04:53:14;;;;;;;0.90;0.90;;;;;;;;;;5088834;28;20024;-76
2022/06/15 04:55:39;;;;;;;0.98;0.60;;;;;;;;;;5092381;28;20032;-76
2022/06/15 04:58:05;;;;;;;0.50;0.50;;;;;;;;;;5093821;28;20031;-76
2022/06/15 05:00:35;;;;;;;0.52;0.52;;;;;;;;;;5073801;28;20031;-75
2022/06/15 05:03:03;;;;;;;0.57;0.57;;;;;;;;;;5074371;28;20027;-77
2022/06/15 05:05:29;;;;;;;0.60;0.60;;;;;;;;;;5073391;28;20028;-76
2022/06/15 05:07:57;;;;;;;0.15;0.15;;;;;;;;;;5075168;28;20289;-77
2022/06/15 05:10:24;;;;;;;0.68;0.60;;;;;;;;;;5076189;28;20051;-77
2022/06/15 05:12:50;;;;;;;1.67;0.85;;;;;;;;;;5093737;28;20028;-77
2022/06/15 05:15:16;;;;;;;1.10;1.02;;;;;;;;;;5092778;28;20035;-77
2022/06/15 05:17:45;;;;;;;0.90;0.63;;;;;;;;;;5083967;28;20024;-77
2022/06/15 05:20:14;;;;;;;1.40;0.57;;;;;;;;;;5081091;28;20029;-77
2022/06/15 05:22:42;;;;;;;1.48;0.88;;;;;;;;;;5069231;28;20085;-77
2022/06/15 05:25:09;;;;;;;1.83;0.90;;;;;;;;;;5092955;28;20028;-77
2022/06/15 05:27:37;;;;;;;0.52;0.52;;;;;;;;;;5073133;28;20520;-77
2022/06/15 05:30:04;;;;;;;0.25;0.25;;;;;;;;;;5078602;28;20023;-77
2022/06/15 05:32:38;;;;;;;1.38;0.80;;;;;;;;;;5093098;28;20036;-78
2022/06/15 05:35:04;;;;;;;0.93;0.85;;;;;;;;;;5086471;28;20051;-78
2022/06/15 05:37:31;;;;;;;1.00;0.45;;;;;;;;;;5092312;28;20055;-76
2022/06/15 05:39:57;;;;;;;1.05;1.02;;;;;;;;;;5070052;28;20390;-76
2022/06/15 05:42:22;;;;;;;0.63;0.63;;;;;;;;;;5091134;28;20058;-78
2022/06/15 05:44:50;;;;;;;0.50;0.40;;;;;;;;;;5093217;28;20107;-77
2022/06/15 05:47:16;;;;;;;1.02;0.65;;;;;;;;;;5085583;28;20027;-77
2022/06/15 05:49:43;;;;;;;1.13;0.57;;;;;;;;;;5085441;28;20034;-77
2022/06/15 05:52:10;;;;;;;0.52;0.52;;;;;;;;;;5072451;28;20186;-77
2022/06/15 05:54:38;;;;;;;1.65;0.70;;;;;;;;;;5067043;28;20115;-77
2022/06/15 05:57:24;;;;;;;1.60;0.60;;;;;;;;;;5047405;28;20471;-78
2022/06/15 05:59:55;;;;;;;2.03;0.47;;;;;;;;;;5073852;28;20048;-77
2022/06/15 06:02:21;;;;;;;0.50;0.50;;;;;;;;;;5089802;28;20453;-77
2022/06/15 06:04:50;;;;;;;0.55;0.55;;;;;;;;;;5059494;28;20420;-78
2022/06/15 06:07:19;;;;;;;0.40;0.40;;;;;;;;;;5080923;28;20084;-78
2022/06/15 06:09:44;;;;;;;0.57;0.57;;;;;;;;;;5093608;28;20038;-75
2022/06/15 06:12:10;;;;;;;1.23;0.85;;;;;;;;;;5066760;28;20508;-77
2022/06/15 06:14:38;;;;;;;0.75;0.57;;;;;;;;;;5087251;28;20089;-78
2022/06/15 06:17:05;;;;;;;0.95;0.60;;;;;;;;;;5082783;28;20062;-78
2022/06/15 06:19:30;;;;;;;0.82;0.82;;;;;;;;;;5066316;28;20025;-78
2022/06/15 06:21:55;;;;;;;0.70;0.65;;;;;;;;;;5066944;28;20513;-78
2022/06/15 06:24:21;;;;;;;2.83;0.47;;;;;;;;;;5085844;28;20430;-77
2022/06/15 06:26:48;;;;;;;0.80;0.70;;;;;;;;;;5088415;28;20494;-76
2022/06/15 06:29:18;;;;;;;2.00;0.35;;;;;;;;;;5074966;28;20029;-77
2022/06/15 06:31:43;;;;;;;0.50;0.50;;;;;;;;;;5069943;28;20053;-77
2022/06/15 06:34:10;;;;;;;0.63;0.63;;;;;;;;;;5091887;28;20033;-77
2022/06/15 06:36:44;;;;;;;1.27;0.82;;;;;;;;;;5071343;28;20032;-77
2022/06/15 06:39:20;;;;;;;0.65;0.57;;;;;;;;;;5066222;28;20125;-77
2022/06/15 06:41:46;;;;;;;0.28;0.28;;;;;;;;;;5073214;28;20036;-77
2022/06/15 06:44:14;;;;;;;0.25;0.25;;;;;;;;;;5078314;28;20027;-77
2022/06/15 06:46:45;;;;;;;0.70;0.70;;;;;;;;;;5053509;28;20043;-76
2022/06/15 06:49:14;;;;;;;0.65;0.65;;;;;;;;;;5063297;28;20028;-77
2022/06/15 06:51:41;;;;;;;0.55;0.55;;;;;;;;;;5066800;28;20490;-77
2022/06/15 06:54:13;;;;;;;0.80;0.77;;;;;;;;;;5067527;28;20028;-75
2022/06/15 06:56:42;;;;;;;0.88;0.75;;;;;;;;;;5044166;28;20095;-77
2022/06/15 06:59:11;;;;;;;1.30;0.85;;;;;;;;;;5060836;28;20040;-78
2022/06/15 07:01:41;;;;;;;0.75;0.75;;;;;;;;;;5096221;28;20039;-77
2022/06/15 07:04:11;;;;;;;0.47;0.47;;;;;;;;;;5094458;28;20442;-77
2022/06/15 07:06:36;;;;;;;0.55;0.55;;;;;;;;;;5094541;28;20306;-77
2022/06/15 07:09:02;;;;;;;0.73;0.73;;;;;;;;;;5095480;28;20038;-77
2022/06/15 07:11:28;;;;;;;0.30;0.30;;;;;;;;;;5072337;28;20166;-77
2022/06/15 07:13:58;;;;;;;1.13;1.00;;;;;;;;;;5060024;28;20020;-78
2022/06/15 07:16:26;;;;;;;0.57;0.43;;;;;;;;;;5070063;28;20030;-77
2022/06/15 07:18:52;;;;;;;1.75;0.55;;;;;;;;;;5087738;28;20094;-78
2022/06/15 07:21:22;;;;;;;5.38;1.10;;;;;;;;;;5071962;28;20029;-78
2022/06/15 07:23:50;;;;;;;0.30;0.30;;;;;;;;;;5085191;28;20450;-77
2022/06/15 07:26:19;;;;;;;0.50;0.50;;;;;;;;;;5093239;28;20019;-77
2022/06/15 07:28:45;;;;;;;1.00;0.63;;;;;;;;;;5055491;28;20128;-78
2022/06/15 07:31:43;;;;;;;0.45;0.45;;;;;;;;;;5080649;28;20155;-78
2022/06/15 07:34:09;;;;;;;0.40;0.40;;;;;;;;;;5068971;28;20032;-78
2022/06/15 07:36:36;;;;;;;1.48;1.08;;;;;;;;;;5072963;28;20103;-78
2022/06/15 07:39:03;;;;;;;0.47;0.45;;;;;;;;;;5088900;28;20509;-78
2022/06/15 07:41:28;;;;;;;0.90;0.73;;;;;;;;;;5092902;28;20457;-77
2022/06/15 07:43:56;;;;;;;0.50;0.40;;;;;;;;;;5086696;28;20035;-78
2022/06/15 07:46:25;;;;;;;0.45;0.40;;;;;;;;;;5092082;28;20047;-77
2022/06/15 07:51:38;;;;;;;0.98;0.32;;;;;;;;;;5077235;28;20043;-77
2022/06/15 07:54:09;;;;;;;1.58;0.70;;;;;;;;;;5056866;28;20032;-77
2022/06/15 07:56:36;;;;;;;1.00;0.80;;;;;;;;;;5088263;28;20028;-79
2022/06/15 07:59:04;;;;;;;0.45;0.45;;;;;;;;;;5060868;28;20146;-79
2022/06/15 08:01:29;;;;;;;1.55;1.15;;;;;;;;;;5069864;28;20465;-75
2022/06/15 08:03:55;;;;;;;0.52;0.50;;;;;;;;;;5068537;28;20055;-80
2022/06/15 08:06:25;;;;;;;0.30;0.30;;;;;;;;;;5094166;28;20100;-77
2022/06/15 08:08:51;;;;;;;0.40;0.40;;;;;;;;;;5077936;28;20024;-79
2022/06/15 08:11:19;;;;;;;0.30;0.30;;;;;;;;;;5072436;28;20052;-77
2022/06/15 08:13:46;;;;;;;12.50;2.78;;;;;;;;;;5058563;28;20119;-79
2022/06/15 08:16:12;;;;;;;0.82;0.50;;;;;;;;;;5088836;28;20141;-82
2022/06/15 08:18:55;;;;;;;0.55;0.40;;;;;;;;;;5067020;28;20035;-81
2022/06/15 08:21:25;;;;;;;1.52;0.70;;;;;;;;;;5091627;28;20087;-80
2022/06/15 08:23:53;;;;;;;3.37;0.47;;;;;;;;;;5084892;28;20024;-79
2022/06/15 08:26:22;;;;;;;0.50;0.50;;;;;;;;;;5060038;28;20267;-79
2022/06/15 08:28:52;;;;;;;1.73;0.88;;;;;;;;;;5075953;28;20046;-80
2022/06/15 08:31:17;;;;;;;0.45;0.45;;;;;;;;;;5077785;28;20020;-80
2022/06/15 08:33:43;;;;;;;0.20;0.20;;;;;;;;;;5086200;28;20401;-78
2022/06/15 08:36:11;;;;;;;5.32;1.05;;;;;;;;;;5076671;28;20422;-80
2022/06/15 08:38:36;;;;;;;0.82;0.65;;;;;;;;;;5089887;28;20028;-80
2022/06/15 08:41:08;;;;;;;0.43;0.43;;;;;;;;;;5081710;28;20054;-79
2022/06/15 08:43:55;;;;;;;0.65;0.52;;;;;;;;;;5081044;28;20549;-80
2022/06/15 08:46:43;;;;;;;1.45;1.08;;;;;;;;;;5093801;28;20368;-79
2022/06/15 08:49:30;;;;;;;0.43;0.43;;;;;;;;;;5081049;28;20041;-79
2022/06/15 08:52:06;;;;;;;1.65;0.57;;;;;;;;;;5092315;28;20058;-79
2022/06/15 08:54:39;;;;;;;0.30;0.30;;;;;;;;;;5074914;28;20016;-79
2022/06/15 08:57:11;;;;;;;0.40;0.40;;;;;;;;;;5070328;28;20120;-79
2022/06/15 08:59:44;;;;;;;0.50;0.38;;;;;;;;;;5086072;28;20032;-79
2022/06/15 09:02:48;;;;;;;0.45;0.45;;;;;;;;;;5075955;28;20132;-80
2022/06/15 09:05:27;;;;;;;0.77;0.45;;;;;;;;;;5043629;28;20123;-80
2022/06/15 09:08:12;;;;;;;0.43;0.43;;;;;;;;;;5079492;28;20035;-79
2022/06/15 09:11:29;;;;;;;0.73;0.50;;;;;;;;;;5069254;28;20706;-85
2022/06/15 09:14:06;;;;;;;1.80;0.90;;;;;;;;;;5080014;28;20157;-82
2022/06/15 09:16:53;;;;;;;0.40;0.40;;;;;;;;;;5081965;28;20028;-83
2022/06/15 09:19:48;;;;;;;0.85;0.57;;;;;;;;;;5071493;28;20024;-86
2022/06/15 09:22:16;;;;;;;0.22;0.22;;;;;;;;;;5076692;28;20032;-83
2022/06/15 09:24:50;;;;;;;1.08;0.68;;;;;;;;;;5079204;28;20445;-85
2022/06/15 09:27:25;;;;;;;0.60;0.60;;;;;;;;;;5071298;28;20028;-87
2022/06/15 09:29:59;;;;;;;2.17;0.90;;;;;;;;;;5071105;28;20073;-84
2022/06/15 09:32:40;;;;;;;0.80;0.80;;;;;;;;;;5077202;28;20024;-82
2022/06/15 09:35:11;;;;;;;0.40;0.40;;;;;;;;;;5070425;28;20359;-81
2022/06/15 09:37:40;;;;;;;0.52;0.50;;;;;;;;;;5086177;28;20035;-83
2022/06/15 09:40:07;;;;;;;0.50;0.50;;;;;;;;;;5083996;28;20084;-84
2022/06/15 09:42:35;;;;;;;1.65;0.80;;;;;;;;;;5085358;28;20057;-86
2022/06/15 09:45:16;;;;;;;1.23;0.88;;;;;;;;;;5083062;28;20035;-85
2022/06/15 09:47:53;;;;;;;0.50;0.50;;;;;;;;;;5097533;28;20024;-84
2022/06/15 09:50:24;;;;;;;2.45;0.77;;;;;;;;;;5076992;28;20024;-90
2022/06/15 09:53:30;;;;;;;1.08;0.98;;;;;;;;;;5075945;28;20032;-90
2022/06/15 09:56:00;;;;;;;0.90;0.75;;;;;;;;;;5084352;28;20044;-90
2022/06/15 09:58:30;;;;;;;1.05;0.95;;;;;;;;;;5070984;28;20111;-89
2022/06/15 10:00:55;;;;;;;2.03;0.90;;;;;;;;;;5086419;28;20031;-90
2022/06/15 10:03:24;;;;;;;0.68;0.68;;;;;;;;;;5096106;28;20031;-87
2022/06/15 10:05:51;;;;;;;0.63;0.63;;;;;;;;;;5082533;28;20031;-89
2022/06/15 10:08:17;;;;;;;0.50;0.50;;;;;;;;;;5071468;28;20115;-89
2022/06/15 10:10:55;;;;;;;0.93;0.50;;;;;;;;;;5088729;28;20074;-84
2022/06/15 10:13:20;;;;;;;1.73;1.05;;;;;;;;;;5047201;28;20049;-85
2022/06/15 10:16:13;;;;;;;0.38;0.38;;;;;;;;;;5093904;28;20031;-82
2022/06/15 10:18:47;;;;;;;0.60;0.50;;;;;;;;;;5086222;28;20044;-82
2022/06/15 10:21:13;;;;;;;0.68;0.68;;;;;;;;;;5082400;28;20024;-79
2022/06/15 10:23:41;;;;;;;0.27;0.27;;;;;;;;;;5087388;28;20464;-82
2022/06/15 10:26:11;;;;;;;0.70;0.70;;;;;;;;;;5089147;28;20282;-81
2022/06/15 10:28:42;;;;;;;1.38;0.85;;;;;;;;;;5072453;28;20043;-82
2022/06/15 10:31:15;;;;;;;0.40;0.40;;;;;;;;;;5090555;28;20085;-81
2022/06/15 10:33:47;;;;;;;0.82;0.40;;;;;;;;;;5089650;28;20024;-81
2022/06/15 10:36:30;;;;;;;1.27;0.52;;;;;;;;;;5095420;28;20111;-82
2022/06/15 10:39:03;;;;;;;0.88;0.60;;;;;;;;;;5076413;28;20055;-79
2022/06/15 10:41:45;;;;;;;0.30;0.30;;;;;;;;;;5081511;28;20017;-78
2022/06/15 10:44:31;;;;;;;11.48;1.05;;;;;;;;;;5093298;28;20022;-79
2022/06/15 10:47:02;;;;;;;0.57;0.20;;;;;;;;;;5080979;28;20032;-80
2022/06/15 10:49:34;;;;;;;2.03;0.50;;;;;;;;;;5082098;28;20093;-79
2022/06/15 10:52:02;;;;;;;0.95;0.95;;;;;;;;;;5059512;28;20039;-78
2022/06/15 11:02:06;;;;;;;0.57;0.52;;;;;;;;;;5055555;28;20109;-79
2022/06/15 11:03:15;;;;;;;0.30;0.30;;;;;;;;;;5063158;28;20442;-81
2022/06/15 11:05:40;;;;;;;0.65;0.65;;;;;;;;;;5071597;28;20029;-81
2022/06/15 11:08:18;;;;;;;1.55;0.63;;;;;;;;;;5083613;28;20024;-80
2022/06/15 11:10:47;;;;;;;1.48;0.50;;;;;;;;;;5075930;28;20028;-81
2022/06/15 11:13:33;;;;;;;2.47;1.15;;;;;;;;;;5075176;28;20342;-81
2022/06/15 11:19:26;;;;;;;0.68;0.68;;;;;;;;;;5096798;28;20042;-81
2022/06/15 11:21:55;;;;;;;0.50;0.47;;;;;;;;;;5079154;28;20438;-81
2022/06/15 11:24:44;;;;;;;0.70;0.65;;;;;;;;;;5089295;28;20021;-81
2022/06/15 11:27:24;;;;;;;0.50;0.50;;;;;;;;;;5063677;28;20039;-81
2022/06/15 11:29:57;;;;;;;0.50;0.50;;;;;;;;;;5069312;28;20447;-81
2022/06/15 11:32:57;;;;;;;2.65;0.98;;;;;;;;;;5075807;28;20036;-79
2022/06/15 11:35:26;;;;;;;0.47;0.47;;;;;;;;;;5062103;28;20030;-81
2022/06/15 11:37:59;;;;;;;0.93;0.70;;;;;;;;;;5097491;28;20028;-80
2022/06/15 11:40:40;;;;;;;2.63;1.20;;;;;;;;;;5094490;28;20020;-81
2022/06/15 11:43:27;;;;;;;0.77;0.70;;;;;;;;;;5085996;28;20468;-81
2022/06/15 11:45:57;;;;;;;0.43;0.43;;;;;;;;;;5090794;28;20064;-82
2022/06/15 11:48:29;;;;;;;;;;;;;;;;;;5090989;28;20031;-81
2022/06/15 11:51:08;;;;;;;0.43;0.43;;;;;;;;;;5078017;28;20318;-82
2022/06/15 11:53:33;;;;;;;0.88;0.60;;;;;;;;;;5079925;28;20045;-82
2022/06/15 11:56:02;;;;;;;0.63;0.63;;;;;;;;;;5056909;28;20488;-82
2022/06/15 11:58:34;;;;;;;0.50;0.50;;;;;;;;;;5090457;28;20273;-82
2022/06/15 12:01:18;;;;;;;0.95;0.85;;;;;;;;;;5074433;28;20101;-81
2022/06/15 12:04:01;;;;;;;0.52;0.52;;;;;;;;;;5084206;28;20020;-81
2022/06/15 12:06:29;;;;;;;0.50;0.50;;;;;;;;;;5067352;28;20067;-81
2022/06/15 12:09:32;;;;;;;0.63;0.63;;;;;;;;;;5065360;28;20017;-82
2022/06/15 12:15:18;;;;;;;0.80;0.70;;;;;;;;;;5081071;28;20085;-82
2022/06/15 12:18:07;;;;;;;0.40;0.40;;;;;;;;;;5062679;28;20047;-81
2022/06/15 12:20:52;;;;;;;1.15;0.50;;;;;;;;;;5091303;28;20114;-80
2022/06/15 12:23:36;;;;;;;0.52;0.45;;;;;;;;;;5080318;28;20473;-79
2022/06/15 12:26:10;;;;;;;0.60;0.60;;;;;;;;;;5096837;28;20052;-80
2022/06/15 12:28:44;;;;;;;1.60;0.82;;;;;;;;;;5098052;28;20047;-79
2022/06/15 12:31:37;;;;;;;0.77;0.70;;;;;;;;;;5088582;28;20066;-79
2022/06/15 12:34:41;;;;;;;0.50;0.50;;;;;;;;;;5098940;28;20035;-79
2022/06/15 12:37:12;;;;;;;0.68;0.65;;;;;;;;;;5078639;28;20027;-78
2022/06/15 12:39:48;;;;;;;0.80;0.60;;;;;;;;;;5097610;28;20103;-79
2022/06/15 12:42:17;;;;;;;0.40;0.40;;;;;;;;;;5075047;28;20034;-79
2022/06/15 12:44:59;;;;;;;3.22;0.90;;;;;;;;;;5093354;28;20449;-78
2022/06/15 12:47:28;;;;;;;0.32;0.32;;;;;;;;;;5093708;28;20042;-79
2022/06/15 12:50:18;;;;;;;0.47;0.47;;;;;;;;;;5076805;28;20055;-79
2022/06/15 12:53:16;;;;;;;0.68;0.68;;;;;;;;;;5077565;28;20020;-82
2022/06/15 12:55:54;;;;;;;1.20;1.10;;;;;;;;;;5068317;28;20056;-79
2022/06/15 12:58:58;;;;;;;0.70;0.70;;;;;;;;;;5088490;28;20460;-80
2022/06/15 13:01:31;;;;;;;1.48;1.23;;;;;;;;;;5074010;28;20039;-79
2022/06/15 13:04:08;;;;;;;0.57;0.57;;;;;;;;;;5077015;28;20028;-79
2022/06/15 13:06:36;;;;;;;0.93;0.73;;;;;;;;;;5095579;28;20034;-79
2022/06/15 13:09:14;;;;;;;0.50;0.50;;;;;;;;;;5078246;28;20350;-80
2022/06/15 13:11:52;;;;;;;0.47;0.45;;;;;;;;;;5088568;28;20028;-80
2022/06/15 13:14:20;;;;;;;1.05;0.70;;;;;;;;;;5094030;28;20326;-80
2022/06/15 13:17:26;;;;;;;0.40;0.40;;;;;;;;;;5073775;28;20025;-81
2022/06/15 13:20:08;;;;;;;0.70;0.60;;;;;;;;;;5070110;28;20465;-80
2022/06/15 13:22:39;;;;;;;0.40;0.40;;;;;;;;;;5050935;28;20348;-79
2022/06/15 13:25:09;;;;;;;3.20;1.05;;;;;;;;;;5054075;28;20020;-81
2022/06/15 13:27:47;;;;;;;1.63;0.80;;;;;;;;;;5055936;28;20052;-80
2022/06/15 13:30:18;;;;;;;3.03;0.95;;;;;;;;;;5048650;28;20021;-79
2022/06/15 13:32:53;;;;;;;2.45;1.35;;;;;;;;;;5041785;28;20037;-80
2022/06/15 13:35:22;;;;;;;2.13;0.65;;;;;;;;;;5039711;28;20484;-81
2022/06/15 13:38:18;;;;;;;1.55;0.93;;;;;;;;;;5062954;28;20102;-80
2022/06/15 13:40:53;;;;;;;0.52;0.52;;;;;;;;;;5042411;28;20044;-81
2022/06/15 13:43:21;;;;;;;0.60;0.60;;;;;;;;;;5052092;28;20029;-81
2022/06/15 13:45:55;;;;;;;0.45;0.45;;;;;;;;;;5037522;28;20084;-81
2022/06/15 13:48:29;;;;;;;1.35;1.05;;;;;;;;;;5032586;28;20025;-81
2022/06/15 13:50:57;;;;;;;0.28;0.28;;;;;;;;;;5049337;28;20022;-80
2022/06/15 13:53:35;;;;;;;0.90;0.47;;;;;;;;;;5063992;28;20454;-80
2022/06/15 13:56:04;;;;;;;1.00;0.75;;;;;;;;;;5048350;28;20033;-80
2022/06/15 13:58:52;;;;;;;1.27;0.73;;;;;;;;;;5037953;28;20108;-78
2022/06/15 14:01:27;;;;;;;0.43;0.43;;;;;;;;;;5044322;28;20049;-81
2022/06/15 14:04:11;;;;;;;0.88;0.55;;;;;;;;;;5040154;28;20037;-78
2022/06/15 14:07:20;;;;;;;3.90;1.08;;;;;;;;;;5033168;28;20072;-78
2022/06/15 14:09:57;;;;;;;1.00;0.63;;;;;;;;;;5030988;28;20037;-81
2022/06/15 14:12:37;;;;;;;0.50;0.50;;;;;;;;;;5067079;28;20043;-80
2022/06/15 14:15:40;;;;;;;0.30;0.30;;;;;;;;;;5039256;28;20043;-80
2022/06/15 14:18:31;;;;;;;0.30;0.30;;;;;;;;;;5071377;28;20052;-80
2022/06/15 14:20:57;;;;;;;0.68;0.40;;;;;;;;;;5049849;28;20045;-79
2022/06/15 14:23:36;;;;;;;0.32;0.32;;;;;;;;;;5049183;28;20421;-79
2022/06/15 14:26:05;;;;;;;1.20;1.10;;;;;;;;;;5042103;28;20064;-80
2022/06/15 14:28:31;;;;;;;0.65;0.60;;;;;;;;;;5033076;28;20450;-80
2022/06/15 14:31:29;;;;;;;0.40;0.40;;;;;;;;;;5030553;28;20037;-78
2022/06/15 14:33:58;;;;;;;0.40;0.30;;;;;;;;;;5027091;28;20045;-78
2022/06/15 14:36:26;;;;;;;0.82;0.73;;;;;;;;;;5055278;28;20048;-79
2022/06/15 14:39:15;;;;;;;1.05;0.95;;;;;;;;;;5025690;28;20029;-79
2022/06/15 14:41:41;;;;;;;0.30;0.30;;;;;;;;;;5017017;28;20033;-79
2022/06/15 14:44:23;;;;;;;0.80;0.63;;;;;;;;;;5016090;28;20328;-79
2022/06/15 14:46:58;;;;;;;18.15;1.38;;;;;;;;;;5017334;28;20021;-79
2022/06/15 14:49:36;;;;;;;0.45;0.45;;;;;;;;;;5017465;28;20029;-79
2022/06/15 14:52:14;;;;;;;0.85;0.73;;;;;;;;;;5021141;28;20030;-79
2022/06/15 14:54:43;;;;;;;0.50;0.50;;;;;;;;;;5037558;28;20110;-80
2022/06/15 14:57:09;;;;;;;1.13;0.95;;;;;;;;;;5035504;28;20021;-79
2022/06/15 14:59:49;;;;;;;0.95;0.80;;;;;;;;;;5027076;28;20029;-79
2022/06/15 15:02:16;;;;;;;2.25;0.60;;;;;;;;;;5016770;28;20041;-79
2022/06/15 15:05:02;;;;;;;0.52;0.52;;;;;;;;;;5016744;28;20052;-78
2022/06/15 15:10:26;;;;;;;0.40;0.40;;;;;;;;;;5053707;28;20077;-79
2022/06/15 15:12:52;;;;;;;0.50;0.50;;;;;;;;;;5032088;28;20140;-79
2022/06/15 15:15:18;;;;;;;2.60;1.50;;;;;;;;;;5029944;28;20021;-78
2022/06/15 15:17:57;;;;;;;0.30;0.30;;;;;;;;;;5036408;28;20022;-78
2022/06/15 15:20:43;;;;;;;0.82;0.82;;;;;;;;;;5057775;28;20124;-78
2022/06/15 15:23:08;;;;;;;1.02;0.70;;;;;;;;;;5024475;28;20155;-78
2022/06/15 15:25:51;;;;;;;7.18;0.60;;;;;;;;;;5034884;28;20036;-78
2022/06/15 15:34:10;;;;;;;0.85;0.57;;;;;;;;;;5049929;28;20056;-78
2022/06/15 15:39:35;;;;;;;0.22;0.22;;;;;;;;;;5041088;28;20040;-77
2022/06/15 15:42:02;;;;;;;0.60;0.60;;;;;;;;;;5037080;28;20033;-78
2022/06/15 15:44:30;;;;;;;0.55;0.52;;;;;;;;;;5033770;28;20022;-77
2022/06/15 15:46:55;;;;;;;0.65;0.60;;;;;;;;;;5047927;28;20564;-77